EEST,Max TemperatureF,Mean TemperatureF,Min TemperatureF,Max Dew PointF,MeanDew PointF,Min DewpointF,Max Humidity, Mean Humidity, Min Humidity, Max Sea Level PressureIn, Mean Sea Level PressureIn, Min Sea Level PressureIn, Max VisibilityMiles, Mean VisibilityMiles, Min VisibilityMiles, Max Wind SpeedMPH, Mean Wind SpeedMPH, Max Gust SpeedMPH,PrecipitationIn, CloudCover, Events, WindDirDegrees
2012-9-1,82,73,64,64,60,55,83,62,42,30.09,30.04,30.01,6,6,6,12,6,,0.00,1,,96
2012-9-2,86,75,64,66,59,54,88,59,33,30.15,30.10,30.06,6,6,6,14,7,26,0.00,1,,76
2012-9-3,82,71,60,66,60,54,88,65,42,30.09,30.03,29.98,6,6,6,13,6,,0.00,1,,147
2012-9-4,82,71,60,63,57,50,88,59,32,29.98,29.95,29.89,,,,9,6,,0.00,,,121
2012-9-5,80,71,62,66,63,57,88,71,54,29.95,29.92,29.89,,,,9,4,,0.00,,,206
2012-9-6,82,72,62,77,64,59,100,74,54,29.89,29.87,29.83,6,6,6,9,5,,0.00,1,,97
2012-9-7,84,75,66,66,64,61,94,69,51,30.01,29.96,29.89,6,6,6,12,4,,0.00,3,,199
2012-9-8,84,76,68,66,60,55,83,59,37,30.04,30.01,29.95,6,6,6,10,5,,0.00,3,,174
2012-9-9,80,71,62,66,61,57,94,64,45,30.04,30.00,29.95,6,6,6,8,3,,0.00,1,,218
2012-9-10,82,74,66,64,56,46,78,50,28,30.12,30.08,30.06,6,6,6,15,8,,0.00,1,,130
2012-9-11,78,72,66,61,54,50,73,52,36,30.09,30.04,29.98,6,6,6,17,12,,0.00,3,,62
2012-9-12,78,68,59,59,55,50,82,59,39,29.98,29.90,29.83,6,6,6,12,7,,0.00,2,,125
2012-9-13,80,70,59,64,58,50,78,62,42,29.80,29.79,29.77,6,6,6,10,3,,0.00,3,,224
2012-9-14,78,71,64,70,66,57,88,78,69,29.89,29.86,29.83,6,6,6,15,7,,0.00,4,,63
2012-9-15,78,73,68,66,64,63,94,76,57,29.89,29.86,29.83,6,6,6,17,6,,0.00,6,Rain,269
2012-9-16,82,74,66,68,63,61,88,69,51,29.83,29.80,29.77,6,6,6,13,5,,0.00,5,Thunderstorm,231
2012-9-17,80,73,66,66,61,55,94,67,42,29.92,29.88,29.83,6,6,6,9,2,,0.00,5,Rain,164
2012-9-18,78,72,66,64,60,57,88,64,51,29.95,29.93,29.92,6,6,6,14,4,,0.00,3,,92
2012-9-19,78,69,60,64,60,57,88,66,51,29.92,29.90,29.86,6,6,6,10,4,,0.00,2,,216
2012-9-20,78,69,60,66,62,57,94,73,47,29.89,29.86,29.83,6,6,5,21,6,44,0.00,3,Rain-Thunderstorm,240
2012-9-21,71,66,60,55,51,48,77,59,43,30.01,29.94,29.89,6,6,6,14,9,,0.00,1,,249
2012-9-22,73,64,55,55,51,46,88,60,38,30.06,30.03,30.01,6,6,6,13,3,,0.00,2,,225
2012-9-23,78,66,53,59,54,48,82,61,42,30.09,30.06,30.01,,,,9,3,,0.00,,,221
2012-9-24,78,66,55,66,59,50,94,70,47,30.01,29.95,29.86,,,,9,3,,0.00,,,236
2012-9-25,78,68,59,66,61,54,88,69,57,29.86,29.84,29.83,6,6,6,9,5,,0.00,1,,235
2012-9-26,82,71,60,70,66,59,94,77,58,29.95,29.91,29.86,6,6,6,8,2,,0.00,1,,214
2012-9-27,82,71,60,70,66,59,94,77,54,30.04,30.01,29.98,6,6,6,10,3,,0.00,1,,221
2012-9-28,86,77,68,64,62,59,83,61,40,30.06,30.04,30.01,6,6,6,10,4,,0.00,1,,192
2012-9-29,89,76,62,66,59,55,88,59,31,30.12,30.07,30.04,,,,13,3,,0.00,,,212
2012-9-30,82,72,62,70,66,57,100,76,58,30.09,30.06,30.04,,,,9,5,,0.00,,,125